| time (UTC) | temp F | wind direction | speed knots | gust knots | rain 1hr in | rain 24hr in | rain mn in | humidity % | barometer mb |
| 20260507212106 | 60 | 218 | 0.9 | 0.9 | 0.00 | 0.00 | 0.00 | 72 | 1014.6 |
| 20260507211606 | 60 | 215 | 0.9 | 1.7 | 0.00 | 0.00 | 0.00 | 72 | 1014.8 |
| 20260507211106 | 60 | 213 | 0.9 | 1.7 | 0.00 | 0.00 | 0.00 | 72 | 1014.9 |
| 20260507210605 | 60 | 224 | 0.0 | 0.9 | 0.00 | 0.00 | 0.00 | 72 | 1014.9 |
| 20260507205606 | 61 | 226 | 0.0 | 1.7 | 0.00 | 0.00 | 0.00 | 70 | 1014.9 |
| 20260507205105 | 60 | 210 | 0.0 | 1.7 | 0.00 | 0.00 | 0.00 | 71 | 1014.9 |
| 20260507204605 | 60 | 233 | 0.9 | 0.9 | 0.00 | 0.00 | 0.00 | 70 | 1015.0 |
| 20260507204105 | 61 | 238 | 0.0 | 1.7 | 0.00 | 0.00 | 0.00 | 70 | 1015.1 |
| 20260507203605 | 61 | 173 | 0.9 | 1.7 | 0.00 | 0.00 | 0.00 | 70 | 1014.9 |
| 20260507203105 | 61 | 226 | 0.0 | 0.9 | 0.00 | 0.00 | 0.00 | 70 | 1015.1 |
| 20260507202605 | 61 | 222 | 0.0 | 0.9 | 0.00 | 0.00 | 0.00 | 70 | 1015.2 |
| 20260507202106 | 61 | 315 | 1.7 | 1.7 | 0.00 | 0.00 | 0.00 | 69 | 1015.0 |
| 20260507201605 | 61 | 271 | 0.0 | 0.9 | 0.00 | 0.00 | 0.00 | 70 | 1014.9 |
| 20260507201107 | 61 | 222 | 0.9 | 1.7 | 0.00 | 0.00 | 0.00 | 69 | 1015.1 |
| 20260507200605 | 61 | 145 | 0.9 | 2.6 | 0.00 | 0.00 | 0.00 | 69 | 1015.2 |
| 20260507200112 | 61 | 15 | 1.7 | 2.6 | 0.00 | 0.00 | 0.00 | 69 | 1014.9 |
| 20260507195606 | 61 | 216 | 0.9 | 4.3 | 0.00 | 0.00 | 0.00 | 70 | 1015.1 |
| 20260507195105 | 61 | 141 | 0.9 | 4.3 | 0.00 | 0.00 | 0.00 | 69 | 1015.2 |
| 20260507194605 | 62 | 139 | 2.6 | 7.8 | 0.00 | 0.00 | 0.00 | 69 | 1015.0 |
| 20260507194105 | 61 | 96 | 5.2 | 7.0 | 0.00 | 0.00 | 0.00 | 70 | 1015.2 |
| 20260507193605 | 61 | 169 | 1.7 | 5.2 | 0.00 | 0.00 | 0.00 | 70 | 1014.9 |
| 20260507193105 | 61 | 170 | 1.7 | 5.2 | 0.00 | 0.00 | 0.00 | 71 | 1014.9 |
| 20260507192605 | 61 | 76 | 2.6 | 5.2 | 0.00 | 0.00 | 0.00 | 71 | 1014.9 |
| 20260507192105 | 61 | 137 | 1.7 | 2.6 | 0.00 | 0.00 | 0.00 | 71 | 1014.9 |
| 20260507191606 | 62 | 192 | 1.7 | 2.6 | 0.00 | 0.00 | 0.00 | 71 | 1014.9 |
| 20260507191106 | 62 | 185 | 1.7 | 6.1 | 0.00 | 0.00 | 0.00 | 71 | 1014.6 |
| 20260507190605 | 62 | 102 | 5.2 | 7.0 | 0.00 | 0.00 | 0.00 | 71 | 1014.7 |
| 20260507190112 | 62 | 138 | 2.6 | 6.1 | 0.00 | 0.00 | 0.00 | 72 | 1014.6 |
| 20260507185605 | 62 | 89 | 3.5 | 6.1 | 0.00 | 0.00 | 0.00 | 72 | 1014.6 |
| 20260507185106 | 62 | 67 | 3.5 | 5.2 | 0.00 | 0.00 | 0.00 | 72 | 1014.6 |
| 20260507184605 | 62 | 104 | 3.5 | 6.1 | 0.00 | 0.00 | 0.00 | 72 | 1014.2 |
| 20260507184105 | 62 | 129 | 1.7 | 5.2 | 0.00 | 0.00 | 0.00 | 72 | 1014.2 |
| 20260507183105 | 62 | 96 | 4.3 | 7.0 | 0.00 | 0.00 | 0.00 | 72 | 1014.0 |
| 20260507182605 | 62 | 147 | 2.6 | 7.8 | 0.00 | 0.00 | 0.00 | 72 | 1013.8 |
| 20260507182105 | 62 | 66 | 4.3 | 6.1 | 0.00 | 0.00 | 0.00 | 72 | 1013.7 |
| 20260507181605 | 62 | 101 | 2.6 | 7.0 | 0.00 | 0.00 | 0.00 | 72 | 1013.7 |
| 20260507181105 | 63 | 88 | 4.3 | 7.0 | 0.00 | 0.00 | 0.00 | 72 | 1013.9 |
| 20260507180605 | 63 | 124 | 5.2 | 7.0 | 0.00 | 0.00 | 0.00 | 72 | 1013.9 |
| 20260507175605 | 63 | 86 | 3.5 | 6.1 | 0.00 | 0.00 | 0.00 | 72 | 1013.9 |
| 20260507175107 | 63 | 91 | 5.2 | 6.1 | 0.00 | 0.00 | 0.00 | 72 | 1013.5 |
| 20260507174606 | 64 | 103 | 2.6 | 5.2 | 0.00 | 0.00 | 0.00 | 72 | 1013.5 |
| 20260507174105 | 64 | 101 | 5.2 | 10.4 | 0.00 | 0.00 | 0.00 | 72 | 1013.5 |
| 20260507173105 | 64 | 108 | 3.5 | 7.8 | 0.00 | 0.00 | 0.00 | 71 | 1013.5 |
| 20260507172605 | 64 | 109 | 2.6 | 5.2 | 0.00 | 0.00 | 0.00 | 71 | 1013.5 |
| 20260507171604 | 65 | 133 | 6.1 | 7.8 | 0.00 | 0.00 | 0.00 | 71 | 1013.2 |
| 20260507171105 | 65 | 170 | 2.6 | 5.2 | 0.00 | 0.00 | 0.00 | 71 | 1013.2 |
| 20260507170607 | 65 | 170 | 2.6 | 5.2 | 0.00 | 0.00 | 0.00 | 71 | 1013.2 |
| 20260507170111 | 65 | 127 | 4.3 | 6.1 | 0.00 | 0.00 | 0.00 | 71 | 1013.5 |
| 20260507165605 | 65 | 99 | 3.5 | 7.8 | 0.00 | 0.00 | 0.00 | 71 | 1013.2 |
| 20260507165105 | 65 | 152 | 6.1 | 7.8 | 0.00 | 0.00 | 0.00 | 71 | 1013.2 |
| 20260507164606 | 65 | 107 | 4.3 | 7.8 | 0.00 | 0.00 | 0.00 | 72 | 1013.2 |
| 20260507164105 | 65 | 103 | 2.6 | 4.3 | 0.00 | 0.00 | 0.00 | 72 | 1013.0 |
| 20260507163605 | 65 | 114 | 4.3 | 7.0 | 0.00 | 0.00 | 0.00 | 72 | 1013.2 |
| 20260507163105 | 65 | 113 | 3.5 | 8.7 | 0.00 | 0.00 | 0.00 | 72 | 1013.2 |
| 20260507162605 | 65 | 105 | 8.7 | 13.9 | 0.00 | 0.00 | 0.00 | 72 | 1013.2 |
| 20260507162105 | 65 | 131 | 5.2 | 11.3 | 0.00 | 0.00 | 0.00 | 72 | 1013.5 |
| 20260507161605 | 65 | 129 | 5.2 | 11.3 | 0.00 | 0.00 | 0.00 | 72 | 1013.2 |
| 20260507161107 | 65 | 100 | 6.1 | 12.2 | 0.00 | 0.00 | 0.00 | 72 | 1013.1 |
| 20260507160604 | 65 | 92 | 7.8 | 15.6 | 0.00 | 0.00 | 0.00 | 70 | 1013.2 |
| 20260507155604 | 65 | 139 | 5.2 | 12.2 | 0.00 | 0.00 | 0.00 | 73 | 1013.4 |
| 20260507155105 | 65 | 113 | 3.5 | 8.7 | 0.00 | 0.00 | 0.00 | 74 | 1013.4 |
| 20260507154605 | 65 | 136 | 4.3 | 11.3 | 0.00 | 0.00 | 0.00 | 74 | 1013.4 |
| 20260507154105 | 65 | 127 | 7.0 | 11.3 | 0.00 | 0.00 | 0.00 | 74 | 1013.2 |
| 20260507153605 | 65 | 132 | 5.2 | 8.7 | 0.00 | 0.00 | 0.00 | 74 | 1013.3 |
| 20260507152605 | 64 | 138 | 6.1 | 12.2 | 0.00 | 0.00 | 0.00 | 75 | 1013.5 |
| 20260507152105 | 64 | 162 | 4.3 | 7.0 | 0.00 | 0.00 | 0.00 | 75 | 1013.5 |
| 20260507151105 | 64 | 122 | 6.1 | 13.0 | 0.00 | 0.00 | 0.00 | 75 | 1013.5 |
| 20260507150605 | 64 | 107 | 8.7 | 13.9 | 0.00 | 0.00 | 0.00 | 75 | 1013.5 |
| 20260507150113 | 64 | 153 | 5.2 | 13.0 | 0.00 | 0.00 | 0.00 | 75 | 1013.5 |
| 20260507145605 | 64 | 96 | 7.8 | 13.0 | 0.00 | 0.00 | 0.00 | 74 | 1013.5 |
| 20260507145105 | 64 | 116 | 6.1 | 11.3 | 0.00 | 0.00 | 0.00 | 75 | 1013.6 |
| 20260507144605 | 64 | 145 | 4.3 | 12.2 | 0.00 | 0.00 | 0.00 | 75 | 1013.5 |
| 20260507144105 | 64 | 128 | 8.7 | 13.9 | 0.00 | 0.00 | 0.00 | 75 | 1013.5 |
| 20260507143605 | 64 | 101 | 6.1 | 11.3 | 0.00 | 0.00 | 0.00 | 74 | 1013.5 |
| 20260507142105 | 64 | 93 | 10.4 | 13.9 | 0.00 | 0.00 | 0.00 | 74 | 1013.8 |
| 20260507141605 | 64 | 119 | 10.4 | 13.0 | 0.00 | 0.00 | 0.00 | 74 | 1013.5 |
| 20260507141105 | 64 | 104 | 5.2 | 12.2 | 0.00 | 0.00 | 0.00 | 74 | 1013.8 |
| 20260507140606 | 64 | 144 | 5.2 | 12.2 | 0.00 | 0.00 | 0.00 | 75 | 1013.5 |
| 20260507140112 | 64 | 100 | 6.1 | 11.3 | 0.00 | 0.00 | 0.00 | 75 | 1013.8 |
| 20260507135605 | 63 | 172 | 4.3 | 15.6 | 0.00 | 0.00 | 0.00 | 75 | 1013.6 |
| 20260507135105 | 63 | 113 | 9.6 | 15.6 | 0.00 | 0.00 | 0.00 | 76 | 1013.9 |
| 20260507134605 | 63 | 95 | 7.0 | 13.9 | 0.00 | 0.00 | 0.00 | 76 | 1013.8 |
| 20260507134104 | 63 | 107 | 11.3 | 13.9 | 0.00 | 0.00 | 0.00 | 77 | 1013.5 |
| 20260507133605 | 63 | 128 | 7.0 | 12.2 | 0.00 | 0.00 | 0.00 | 77 | 1013.5 |
| 20260507133105 | 63 | 119 | 5.2 | 11.3 | 0.00 | 0.00 | 0.00 | 78 | 1013.8 |
| 20260507132605 | 63 | 135 | 5.2 | 13.9 | 0.00 | 0.00 | 0.00 | 79 | 1013.7 |
| 20260507132105 | 63 | 119 | 7.0 | 13.9 | 0.00 | 0.00 | 0.00 | 79 | 1013.7 |
| 20260507130604 | 64 | 90 | 7.8 | 10.4 | 0.00 | 0.00 | 0.00 | 79 | 1013.9 |
| 20260507130112 | 64 | 127 | 4.3 | 14.8 | 0.00 | 0.00 | 0.00 | 80 | 1013.7 |
| 20260507125605 | 64 | 100 | 8.7 | 15.6 | 0.00 | 0.00 | 0.00 | 79 | 1013.6 |
| 20260507125105 | 65 | 117 | 6.1 | 15.6 | 0.00 | 0.00 | 0.00 | 79 | 1013.9 |
| 20260507124605 | 65 | 103 | 0.9 | 12.2 | 0.00 | 0.00 | 0.00 | 79 | 1013.8 |
| 20260507124105 | 64 | 111 | 7.8 | 12.2 | 0.00 | 0.00 | 0.00 | 79 | 1013.9 |
| 20260507123105 | 64 | 93 | 8.7 | 13.0 | 0.00 | 0.00 | 0.00 | 80 | 1013.6 |
| 20260507122604 | 64 | 146 | 4.3 | 10.4 | 0.00 | 0.00 | 0.00 | 80 | 1013.8 |
| 20260507122105 | 64 | 128 | 7.8 | 12.2 | 0.00 | 0.00 | 0.00 | 80 | 1013.9 |
| 20260507121604 | 64 | 148 | 6.1 | 10.4 | 0.00 | 0.00 | 0.00 | 80 | 1013.9 |
| 20260507121105 | 63 | 111 | 6.1 | 12.2 | 0.00 | 0.00 | 0.00 | 81 | 1013.9 |
| 20260507120605 | 63 | 103 | 4.3 | 8.7 | 0.00 | 0.00 | 0.00 | 80 | 1014.1 |
| 20260507115604 | 64 | 146 | 3.5 | 8.7 | 0.00 | 0.00 | 0.00 | 81 | 1014.2 |
| 20260507115105 | 64 | 129 | 3.5 | 7.0 | 0.00 | 0.00 | 0.00 | 80 | 1013.9 |
| 20260507114604 | 64 | 126 | 4.3 | 7.0 | 0.00 | 0.00 | 0.00 | 81 | 1013.9 |
| 20260507114105 | 64 | 128 | 4.3 | 7.8 | 0.00 | 0.00 | 0.00 | 81 | 1014.1 |
| 20260507113604 | 64 | 141 | 3.5 | 11.3 | 0.00 | 0.00 | 0.00 | 81 | 1014.1 |
| 20260507112605 | 65 | 129 | 4.3 | 7.8 | 0.00 | 0.00 | 0.00 | 79 | 1014.0 |
| 20260507112105 | 64 | 136 | 1.7 | 6.1 | 0.00 | 0.00 | 0.00 | 79 | 1013.9 |
| 20260507111605 | 64 | 167 | 6.1 | 11.3 | 0.00 | 0.00 | 0.00 | 79 | 1013.9 |
| 20260507111105 | 64 | 200 | 1.7 | 10.4 | 0.00 | 0.00 | 0.00 | 80 | 1013.9 |
| 20260507110605 | 64 | 150 | 5.2 | 10.4 | 0.00 | 0.00 | 0.00 | 80 | 1014.1 |
| 20260507110111 | 64 | 110 | 6.1 | 10.4 | 0.00 | 0.00 | 0.00 | 78 | 1013.9 |
| 20260507105604 | 65 | 173 | 0.9 | 5.2 | 0.00 | 0.00 | 0.00 | 77 | 1014.2 |
| 20260507105104 | 65 | 147 | 2.6 | 7.0 | 0.00 | 0.00 | 0.00 | 76 | 1014.2 |
| 20260507104604 | 65 | 191 | 1.7 | 4.3 | 0.00 | 0.00 | 0.00 | 76 | 1014.1 |
| 20260507104104 | 65 | 202 | 2.6 | 4.3 | 0.00 | 0.00 | 0.00 | 76 | 1014.0 |
| 20260507103104 | 64 | 121 | 4.3 | 10.4 | 0.00 | 0.00 | 0.00 | 77 | 1014.0 |
| 20260507102605 | 64 | 125 | 4.3 | 8.7 | 0.00 | 0.00 | 0.00 | 78 | 1014.2 |
| 20260507102105 | 64 | 40 | 4.3 | 8.7 | 0.00 | 0.00 | 0.00 | 77 | 1014.2 |
| 20260507101605 | 64 | 94 | 6.1 | 10.4 | 0.00 | 0.00 | 0.00 | 77 | 1014.2 |
| 20260507101104 | 64 | 129 | 2.6 | 7.8 | 0.00 | 0.00 | 0.00 | 77 | 1014.2 |
| 20260507100605 | 63 | 166 | 4.3 | 7.0 | 0.00 | 0.00 | 0.00 | 78 | 1014.2 |
| 20260507100111 | 64 | 126 | 2.6 | 7.8 | 0.00 | 0.00 | 0.00 | 77 | 1014.2 |
| 20260507095604 | 63 | 156 | 2.6 | 13.0 | 0.00 | 0.00 | 0.00 | 77 | 1014.2 |
| 20260507094105 | 64 | 117 | 5.2 | 15.6 | 0.00 | 0.00 | 0.00 | 74 | 1014.0 |
| 20260507093605 | 65 | 71 | 4.3 | 13.0 | 0.00 | 0.00 | 0.00 | 75 | 1013.9 |
| 20260507092104 | 63 | 92 | 9.6 | 14.8 | 0.00 | 0.00 | 0.00 | 76 | 1013.6 |
| 20260507091605 | 63 | 113 | 6.1 | 12.2 | 0.00 | 0.00 | 0.00 | 77 | 1013.5 |
| 20260507091105 | 62 | 303 | 7.0 | 15.6 | 0.00 | 0.00 | 0.00 | 77 | 1013.4 |
| 20260507090604 | 62 | 117 | 5.2 | 19.1 | 0.00 | 0.00 | 0.00 | 77 | 1013.5 |
| 20260507085105 | 62 | 100 | 9.6 | 13.0 | 0.00 | 0.00 | 0.00 | 76 | 1013.4 |
| 20260507084605 | 62 | 92 | 12.2 | 20.9 | 0.00 | 0.00 | 0.00 | 76 | 1013.3 |
| 20260507084105 | 62 | 112 | 9.6 | 14.8 | 0.00 | 0.00 | 0.00 | 77 | 1013.5 |
| 20260507083604 | 62 | 79 | 7.0 | 18.2 | 0.00 | 0.00 | 0.00 | 77 | 1013.5 |
| 20260507083105 | 61 | 97 | 8.7 | 12.2 | 0.00 | 0.00 | 0.00 | 78 | 1013.2 |
| 20260507082605 | 61 | 116 | 11.3 | 20.9 | 0.00 | 0.00 | 0.00 | 79 | 1013.5 |
| 20260507082104 | 61 | 136 | 7.8 | 17.4 | 0.00 | 0.00 | 0.00 | 78 | 1013.2 |
| 20260507081605 | 61 | 80 | 9.6 | 18.2 | 0.00 | 0.00 | 0.00 | 79 | 1013.0 |
| 20260507075605 | 61 | 83 | 11.3 | 17.4 | 0.00 | 0.00 | 0.00 | 80 | 1013.2 |
| 20260507075105 | 61 | 93 | 13.9 | 20.0 | 0.00 | 0.00 | 0.00 | 80 | 1013.1 |
| 20260507074606 | 61 | 58 | 6.1 | 14.8 | 0.00 | 0.00 | 0.00 | 80 | 1013.2 |
| 20260507074105 | 60 | 117 | 6.1 | 13.0 | 0.00 | 0.00 | 0.00 | 80 | 1013.2 |
| 20260507073606 | 60 | 101 | 10.4 | 19.1 | 0.00 | 0.00 | 0.00 | 80 | 1013.1 |
| 20260507073105 | 60 | 120 | 5.2 | 13.9 | 0.00 | 0.00 | 0.00 | 81 | 1013.0 |
| 20260507072605 | 60 | 92 | 6.1 | 12.2 | 0.00 | 0.00 | 0.00 | 81 | 1013.1 |
| 20260507072105 | 60 | 116 | 7.0 | 20.0 | 0.00 | 0.00 | 0.00 | 81 | 1013.2 |
| 20260507071604 | 60 | 117 | 12.2 | 17.4 | 0.00 | 0.00 | 0.00 | 81 | 1013.1 |
| 20260507071105 | 60 | 85 | 3.5 | 12.2 | 0.00 | 0.00 | 0.00 | 82 | 1013.4 |
| 20260507070605 | 60 | 191 | 5.2 | 19.1 | 0.00 | 0.00 | 0.00 | 82 | 1012.9 |
| 20260507070115 | 60 | 115 | 11.3 | 20.0 | 0.00 | 0.00 | 0.00 | 82 | 1013.0 |
| 20260507065606 | 60 | 106 | 13.9 | 20.0 | 0.00 | 0.00 | 0.00 | 82 | 1012.9 |
| 20260507064605 | 60 | 101 | 10.4 | 27.8 | 0.00 | 0.00 | 0.00 | 82 | 1012.9 |
| 20260507064106 | 60 | 104 | 11.3 | 27.8 | 0.00 | 0.00 | 0.00 | 82 | 1013.2 |
| 20260507063605 | 60 | 120 | 10.4 | 20.0 | 0.00 | 0.00 | 0.00 | 82 | 1013.2 |
| 20260507063105 | 61 | 66 | 10.4 | 22.6 | 0.00 | 0.00 | 0.00 | 82 | 1013.1 |
| 20260507062104 | 61 | 111 | 9.6 | 20.9 | 0.00 | 0.00 | 0.00 | 81 | 1012.9 |
| 20260507061105 | 61 | 94 | 11.3 | 26.9 | 0.00 | 0.00 | 0.00 | 79 | 1013.2 |
| 20260507060605 | 61 | 102 | 10.4 | 26.9 | 0.00 | 0.00 | 0.00 | 79 | 1013.2 |
| 20260507055605 | 61 | 203 | 3.5 | 12.2 | 0.00 | 0.00 | 0.00 | 80 | 1013.2 |
| 20260507055105 | 61 | 86 | 11.3 | 15.6 | 0.00 | 0.00 | 0.00 | 80 | 1013.4 |
| 20260507054105 | 60 | 112 | 5.2 | 11.3 | 0.00 | 0.00 | 0.00 | 81 | 1013.4 |
| 20260507053605 | 60 | 70 | 5.2 | 7.8 | 0.00 | 0.00 | 0.00 | 81 | 1013.5 |
| 20260507053105 | 60 | 55 | 6.1 | 13.9 | 0.00 | 0.00 | 0.00 | 80 | 1013.5 |
| 20260507052606 | 60 | 92 | 4.3 | 8.7 | 0.00 | 0.00 | 0.00 | 80 | 1013.5 |
| 20260507052104 | 60 | 120 | 5.2 | 11.3 | 0.00 | 0.00 | 0.00 | 80 | 1013.5 |
| 20260507051605 | 61 | 141 | 4.3 | 10.4 | 0.00 | 0.00 | 0.00 | 80 | 1013.5 |
| 20260507051105 | 60 | 92 | 6.1 | 11.3 | 0.00 | 0.00 | 0.00 | 79 | 1013.2 |
| 20260507050113 | 60 | 144 | 5.2 | 8.7 | 0.00 | 0.00 | 0.00 | 78 | 1013.4 |
| 20260507045606 | 60 | 129 | 3.5 | 8.7 | 0.00 | 0.00 | 0.00 | 79 | 1013.5 |
| 20260507045105 | 60 | 70 | 6.1 | 14.8 | 0.00 | 0.00 | 0.00 | 79 | 1013.2 |
| 20260507044605 | 61 | 119 | 3.5 | 10.4 | 0.00 | 0.00 | 0.00 | 77 | 1013.2 |
| 20260507044106 | 61 | 104 | 3.5 | 10.4 | 0.00 | 0.00 | 0.00 | 74 | 1012.9 |
| 20260507043608 | 62 | 37 | 4.3 | 7.0 | 0.00 | 0.00 | 0.00 | 72 | 1013.1 |
| 20260507043105 | 62 | 316 | 3.5 | 5.2 | 0.00 | 0.00 | 0.00 | 71 | 1013.0 |
| 20260507042105 | 62 | 191 | 0.9 | 4.3 | 0.00 | 0.00 | 0.00 | 70 | 1012.9 |
| 20260507041605 | 62 | 105 | 2.6 | 7.8 | 0.00 | 0.00 | 0.00 | 69 | 1012.6 |
| 20260507041105 | 63 | 185 | 1.7 | 7.0 | 0.00 | 0.00 | 0.00 | 70 | 1012.9 |
| 20260507040605 | 63 | 161 | 2.6 | 8.7 | 0.00 | 0.00 | 0.00 | 70 | 1012.9 |
| 20260507040114 | 63 | 214 | 2.6 | 11.3 | 0.00 | 0.00 | 0.00 | 70 | 1012.6 |
| 20260507035105 | 63 | 135 | 6.1 | 13.9 | 0.00 | 0.00 | 0.00 | 71 | 1011.9 |
| 20260507034605 | 64 | 115 | 9.6 | 14.8 | 0.00 | 0.00 | 0.00 | 70 | 1011.6 |
| 20260507034105 | 64 | 125 | 9.6 | 20.9 | 0.00 | 0.00 | 0.00 | 70 | 1011.3 |
| 20260507033605 | 64 | 126 | 9.6 | 26.1 | 0.00 | 0.00 | 0.00 | 70 | 1011.2 |
| 20260507033105 | 64 | 132 | 7.0 | 25.2 | 0.00 | 0.00 | 0.00 | 70 | 1011.2 |
| 20260507032106 | 64 | 116 | 10.4 | 18.2 | 0.00 | 0.00 | 0.00 | 70 | 1011.2 |
| 20260507031105 | 64 | 116 | 11.3 | 19.1 | 0.00 | 0.00 | 0.00 | 70 | 1011.2 |
| 20260507030606 | 64 | 114 | 14.8 | 24.3 | 0.00 | 0.00 | 0.00 | 70 | 1011.2 |
| 20260507030119 | 64 | 119 | 13.9 | 21.7 | 0.00 | 0.00 | 0.00 | 70 | 1011.2 |
| 20260507025606 | 64 | 91 | 10.4 | 20.0 | 0.00 | 0.00 | 0.00 | 70 | 1011.0 |
| 20260507024605 | 64 | 127 | 12.2 | 22.6 | 0.00 | 0.00 | 0.00 | 70 | 1011.4 |
| 20260507023605 | 64 | 123 | 8.7 | 21.7 | 0.00 | 0.00 | 0.00 | 70 | 1011.2 |
| 20260507023105 | 64 | 88 | 15.6 | 22.6 | 0.00 | 0.00 | 0.00 | 70 | 1011.2 |
| 20260507022605 | 64 | 128 | 16.5 | 24.3 | 0.00 | 0.00 | 0.00 | 71 | 1011.2 |
| 20260507022105 | 64 | 126 | 14.8 | 20.9 | 0.00 | 0.00 | 0.00 | 71 | 1011.2 |
| 20260507021605 | 64 | 79 | 15.6 | 20.9 | 0.00 | 0.00 | 0.00 | 71 | 1011.2 |
| 20260507021105 | 64 | 107 | 10.4 | 20.9 | 0.00 | 0.00 | 0.00 | 70 | 1011.2 |
| 20260507020605 | 64 | 118 | 10.4 | 20.0 | 0.00 | 0.00 | 0.00 | 70 | 1011.5 |
| 20260507015606 | 64 | 103 | 13.0 | 21.7 | 0.00 | 0.00 | 0.00 | 70 | 1011.2 |
| 20260507015105 | 64 | 120 | 14.8 | 22.6 | 0.00 | 0.00 | 0.00 | 70 | 1011.3 |
| 20260507014605 | 64 | 118 | 13.9 | 22.6 | 0.00 | 0.00 | 0.00 | 70 | 1011.2 |
| 20260507014110 | 64 | 79 | 7.8 | 18.2 | 0.00 | 0.00 | 0.00 | 70 | 1011.2 |
| 20260507013606 | 64 | 91 | 11.3 | 24.3 | 0.00 | 0.00 | 0.00 | 70 | 1011.2 |
| 20260507013105 | 64 | 91 | 11.3 | 26.9 | 0.00 | 0.00 | 0.00 | 70 | 1011.3 |
| 20260507012606 | 64 | 82 | 15.6 | 21.7 | 0.00 | 0.00 | 0.00 | 70 | 1011.5 |
| 20260507012106 | 64 | 115 | 11.3 | 20.9 | 0.00 | 0.00 | 0.00 | 70 | 1011.3 |
| 20260507011605 | 64 | 102 | 8.7 | 20.9 | 0.00 | 0.00 | 0.00 | 70 | 1011.5 |
| 20260507010605 | 64 | 128 | 8.7 | 20.9 | 0.00 | 0.00 | 0.00 | 70 | 1011.2 |
| 20260507010114 | 64 | 91 | 15.6 | 21.7 | 0.00 | 0.00 | 0.00 | 70 | 1011.3 |
| 20260507005605 | 64 | 83 | 10.4 | 21.7 | 0.00 | 0.00 | 0.00 | 69 | 1011.2 |
| 20260507004606 | 64 | 107 | 11.3 | 19.1 | 0.00 | 0.00 | 0.00 | 68 | 1011.2 |
| 20260507004105 | 64 | 95 | 14.8 | 24.3 | 0.00 | 0.00 | 0.00 | 67 | 1011.5 |
| 20260507003605 | 64 | 92 | 9.6 | 20.0 | 0.00 | 0.00 | 0.00 | 65 | 1011.5 |
| 20260507003105 | 64 | 90 | 13.0 | 20.0 | 0.00 | 0.00 | 0.00 | 65 | 1011.7 |
| 20260507002604 | 65 | 99 | 12.2 | 15.6 | 0.00 | 0.00 | 0.00 | 64 | 1011.9 |
| 20260507002105 | 65 | 128 | 11.3 | 18.2 | 0.00 | 0.00 | 0.00 | 64 | 1011.9 |
| 20260507001605 | 65 | 86 | 11.3 | 22.6 | 0.00 | 0.00 | 0.00 | 64 | 1011.7 |
| 20260507001105 | 65 | 123 | 17.4 | 22.6 | 0.00 | 0.00 | 0.00 | 64 | 1011.8 |
| 20260507000605 | 65 | 100 | 11.3 | 18.2 | 0.00 | 0.00 | 0.00 | 63 | 1011.6 |
| 20260506235605 | 65 | 126 | 12.2 | 20.9 | 0.00 | 0.00 | 0.00 | 64 | 1011.9 |
| 20260506234105 | 65 | 107 | 7.0 | 18.2 | 0.00 | 0.00 | 0.00 | 65 | 1012.0 |
| 20260506233605 | 65 | 122 | 10.4 | 15.6 | 0.00 | 0.00 | 0.00 | 66 | 1012.1 |
| 20260506233106 | 65 | 94 | 11.3 | 19.1 | 0.00 | 0.00 | 0.00 | 66 | 1012.1 |
| 20260506232605 | 65 | 105 | 7.8 | 18.2 | 0.00 | 0.00 | 0.00 | 67 | 1012.2 |
| 20260506232105 | 65 | 99 | 12.2 | 15.6 | 0.00 | 0.00 | 0.00 | 67 | 1012.2 |
| 20260506231605 | 65 | 106 | 10.4 | 15.6 | 0.00 | 0.00 | 0.00 | 68 | 1012.5 |
| 20260506231105 | 65 | 101 | 13.0 | 18.2 | 0.00 | 0.00 | 0.00 | 68 | 1012.3 |
| 20260506230605 | 65 | 155 | 9.6 | 13.9 | 0.00 | 0.00 | 0.00 | 67 | 1012.2 |
| 20260506230115 | 65 | 136 | 8.7 | 20.0 | 0.00 | 0.00 | 0.00 | 67 | 1012.2 |
| 20260506225606 | 65 | 94 | 8.7 | 14.8 | 0.00 | 0.00 | 0.00 | 67 | 1012.0 |
| 20260506224605 | 66 | 106 | 13.0 | 25.2 | 0.00 | 0.00 | 0.00 | 66 | 1012.4 |
| 20260506224105 | 66 | 101 | 13.0 | 20.0 | 0.00 | 0.00 | 0.00 | 67 | 1012.5 |
| 20260506223605 | 66 | 96 | 14.8 | 20.9 | 0.00 | 0.00 | 0.00 | 67 | 1012.4 |
| 20260506221606 | 66 | 119 | 10.4 | 15.6 | 0.00 | 0.00 | 0.00 | 68 | 1012.5 |
| 20260506221105 | 66 | 111 | 9.6 | 18.2 | 0.00 | 0.00 | 0.00 | 68 | 1012.2 |
| 20260506220605 | 66 | 84 | 8.7 | 17.4 | 0.00 | 0.00 | 0.00 | 68 | 1012.4 |
| 20260506220114 | 66 | 93 | 6.1 | 15.6 | 0.00 | 0.00 | 0.00 | 68 | 1012.5 |
| 20260506215105 | 65 | 121 | 10.4 | 18.2 | 0.00 | 0.00 | 0.00 | 68 | 1012.3 |
| 20260506214605 | 65 | 129 | 11.3 | 14.8 | 0.00 | 0.00 | 0.00 | 68 | 1012.4 |
| 20260506214105 | 65 | 147 | 10.4 | 18.2 | 0.00 | 0.00 | 0.00 | 68 | 1012.4 |
| 20260506213605 | 65 | 112 | 4.3 | 20.9 | 0.00 | 0.00 | 0.00 | 68 | 1012.5 |
| 20260506213105 | 65 | 92 | 10.4 | 20.9 | 0.00 | 0.00 | 0.00 | 68 | 1012.5 |
| 20260506212605 | 65 | 94 | 6.1 | 20.9 | 0.00 | 0.00 | 0.00 | 68 | 1012.2 |